Time;durP1;ratioP1;P1;durP2;ratioP2;P2;SDS_P1;SDS_P2;PMS_P1;PMS_P2;Temp;Humidity;BMP_temperature;BMP_pressure;BME280_temperature;BME280_humidity;BME280_pressure;Samples;Min_cycle;Max_cycle;Signal;HPM_P1;HPM_P2
2021/07/02 00:01:08;;;;;;;12.68;5.55;;;;;;;17.77;75.17;95811.13;5113632;28;20028;-65
2021/07/02 00:03:34;;;;;;;15.65;6.93;;;;;;;17.76;75.10;95799.72;5113532;28;20100;-66
2021/07/02 00:06:00;;;;;;;10.98;5.10;;;;;;;17.74;74.92;95806.94;5113349;28;20024;-65
2021/07/02 00:08:26;;;;;;;7.30;5.63;;;;;;;17.68;74.66;95805.63;5113076;28;20228;-63
2021/07/02 00:10:53;;;;;;;7.53;6.25;;;;;;;17.66;75.58;95811.97;5113545;28;20032;-62
2021/07/02 00:13:19;;;;;;;12.68;5.55;;;;;;;17.59;75.31;95805.50;5114480;28;20388;-68
2021/07/02 00:15:45;;;;;;;15.02;5.50;;;;;;;17.59;75.08;95797.56;5117620;28;20020;-63
2021/07/02 00:18:10;;;;;;;11.75;5.60;;;;;;;17.52;75.21;95787.47;5117454;28;20111;-60
2021/07/02 00:20:36;;;;;;;16.65;5.18;;;;;;;17.50;75.64;95783.25;5117686;28;20027;-65
2021/07/02 00:23:02;;;;;;;11.57;6.13;;;;;;;17.50;75.58;95789.41;5117539;28;20023;-63
2021/07/02 00:25:27;;;;;;;10.90;5.88;;;;;;;17.53;75.17;95783.03;5117441;28;20031;-63
2021/07/02 00:27:53;;;;;;;16.00;6.03;;;;;;;17.53;74.80;95780.38;5117526;28;20020;-60
2021/07/02 00:30:19;;;;;;;15.73;5.60;;;;;;;17.53;74.97;95775.09;5117384;28;20493;-65
2021/07/02 00:32:45;;;;;;;15.07;5.93;;;;;;;17.52;74.91;95771.59;5117397;28;20028;-62
2021/07/02 00:35:10;;;;;;;11.88;5.45;;;;;;;17.48;75.58;95772.81;5117340;28;20423;-62
2021/07/02 00:37:36;;;;;;;10.63;7.07;;;;;;;17.42;76.48;95766.19;5117249;28;20066;-67
2021/07/02 00:40:03;;;;;;;17.35;6.28;;;;;;;17.40;76.44;95762.81;5117191;28;20043;-63
2021/07/02 00:42:29;;;;;;;14.27;6.63;;;;;;;17.43;76.28;95762.59;5117316;28;20015;-62
2021/07/02 00:44:54;;;;;;;10.30;6.22;;;;;;;17.32;75.92;95765.25;5117165;28;20026;-63
2021/07/02 00:47:20;;;;;;;11.18;6.00;;;;;;;17.38;75.31;95754.19;5116996;28;20077;-63
2021/07/02 00:49:46;;;;;;;9.40;6.00;;;;;;;17.40;75.47;95760.19;5116993;28;20023;-66
2021/07/02 00:52:13;;;;;;;16.92;6.57;;;;;;;17.36;75.70;95756.09;5117020;28;20031;-63
2021/07/02 00:54:41;;;;;;;16.08;6.10;;;;;;;17.33;75.49;95755.53;5117016;28;20100;-63
2021/07/02 00:57:09;;;;;;;8.57;5.88;;;;;;;17.30;75.42;95757.44;5116763;28;20087;-64
2021/07/02 00:59:35;;;;;;;15.10;6.20;;;;;;;17.30;75.64;95757.44;5116932;28;20465;-66
2021/07/02 01:02:01;;;;;;;20.63;6.50;;;;;;;17.26;75.71;95757.78;5116903;28;20102;-62
2021/07/02 01:04:27;;;;;;;9.02;5.78;;;;;;;17.26;75.46;95763.06;5116734;28;20023;-60
2021/07/02 01:06:53;;;;;;;9.20;6.15;;;;;;;17.15;76.03;95756.81;5116699;28;20107;-67
2021/07/02 01:09:22;;;;;;;9.45;5.85;;;;;;;17.11;76.94;95765.09;5116402;28;20530;-62
2021/07/02 01:11:47;;;;;;;10.43;6.72;;;;;;;17.07;76.91;95767.16;5098289;28;20055;-66
2021/07/02 01:14:13;;;;;;;14.18;5.13;;;;;;;17.15;76.17;95783.22;5116573;28;20048;-65
2021/07/02 01:16:39;;;;;;;16.45;6.15;;;;;;;17.16;75.67;95778.81;5116440;28;20030;-63
2021/07/02 01:19:05;;;;;;;14.30;5.82;;;;;;;17.06;75.82;95778.63;5116428;28;20077;-65
2021/07/02 01:21:30;;;;;;;12.77;6.30;;;;;;;17.03;76.11;95773.56;5116380;28;20026;-64
2021/07/02 01:23:56;;;;;;;13.52;5.55;;;;;;;17.10;76.21;95785.38;5116401;28;20020;-65
2021/07/02 01:26:22;;;;;;;10.88;4.97;;;;;;;17.10;75.39;95781.91;5115488;28;20028;-62
2021/07/02 01:28:48;;;;;;;12.10;4.97;;;;;;;17.03;75.08;95776.22;5116314;28;20028;-64
2021/07/02 01:31:14;;;;;;;8.50;5.85;;;;;;;16.92;75.80;95774.41;5116215;28;20034;-61
2021/07/02 01:33:39;;;;;;;8.82;5.22;;;;;;;16.91;76.70;95768.28;5116130;28;20019;-63
2021/07/02 01:36:07;;;;;;;14.20;6.13;;;;;;;16.86;76.18;95774.88;5116156;28;20106;-66
2021/07/02 01:38:34;;;;;;;14.10;5.93;;;;;;;16.83;75.83;95764.53;5115971;28;20038;-64
2021/07/02 01:41:00;;;;;;;14.98;6.03;;;;;;;16.81;76.19;95764.66;5097704;28;20072;-62
2021/07/02 01:43:26;;;;;;;12.77;5.70;;;;;;;16.84;76.52;95772.34;5115951;28;20106;-62
2021/07/02 01:45:53;;;;;;;16.48;5.35;;;;;;;16.79;76.11;95769.19;5115928;28;20447;-62
2021/07/02 01:48:19;;;;;;;12.40;5.75;;;;;;;16.76;76.18;95775.56;5115909;28;20058;-61
2021/07/02 01:50:45;;;;;;;15.90;6.50;;;;;;;16.74;76.98;95782.72;5115940;28;20059;-63
2021/07/02 01:53:10;;;;;;;18.13;6.22;;;;;;;16.63;76.71;95782.72;5115857;28;20079;-64
2021/07/02 01:55:36;;;;;;;13.68;6.32;;;;;;;16.64;78.03;95782.59;5115709;28;20031;-67
2021/07/02 01:58:01;;;;;;;16.55;7.40;;;;;;;16.73;78.98;95783.69;5115537;28;20552;-64
2021/07/02 02:00:27;;;;;;;10.75;6.22;;;;;;;16.81;79.13;95780.50;5115765;28;20030;-60
2021/07/02 02:02:53;;;;;;;10.25;6.25;;;;;;;16.90;78.95;95774.53;5115600;28;20042;-63
2021/07/02 02:05:18;;;;;;;18.15;6.47;;;;;;;16.98;79.11;95784.47;5115583;28;20373;-64
2021/07/02 02:07:44;;;;;;;12.77;7.18;;;;;;;17.03;78.93;95784.97;5115487;28;20016;-60
2021/07/02 02:10:10;;;;;;;12.13;6.20;;;;;;;17.18;78.65;95784.78;5115265;28;20496;-63
2021/07/02 02:12:35;;;;;;;11.32;6.90;;;;;;;17.19;78.92;95789.13;5115426;28;20106;-61
2021/07/02 02:15:01;;;;;;;13.05;5.72;;;;;;;17.22;78.73;95796.81;5115379;28;20031;-62
2021/07/02 02:17:26;;;;;;;13.85;6.30;;;;;;;17.25;78.64;95799.22;5115223;28;20055;-63
2021/07/02 02:19:52;;;;;;;9.13;6.43;;;;;;;17.31;78.10;95803.22;5115287;28;20473;-63
2021/07/02 02:22:18;;;;;;;15.95;5.97;;;;;;;17.35;78.09;95803.78;5115311;28;20480;-66
2021/07/02 02:24:43;;;;;;;10.70;6.82;;;;;;;17.40;77.82;95797.19;5115170;28;20036;-65
2021/07/02 02:27:09;;;;;;;11.70;6.43;;;;;;;17.48;77.58;95803.69;5115177;28;20024;-65
2021/07/02 02:29:35;;;;;;;15.00;6.90;;;;;;;17.45;77.60;95802.13;5115089;28;20028;-65
2021/07/02 02:32:01;;;;;;;10.80;6.60;;;;;;;17.49;77.39;95803.56;5115199;28;20095;-64
2021/07/02 02:34:26;;;;;;;9.30;6.43;;;;;;;17.52;76.89;95808.59;5115048;28;20414;-64
2021/07/02 02:36:52;;;;;;;15.75;6.25;;;;;;;17.52;75.73;95810.44;5113906;28;20023;-60
2021/07/02 02:39:17;;;;;;;18.90;6.88;;;;;;;17.52;76.44;95815.72;5096679;28;20065;-64
2021/07/02 02:41:43;;;;;;;15.05;6.70;;;;;;;17.55;75.90;95818.13;5114955;28;20472;-65
2021/07/02 02:44:09;;;;;;;14.57;6.63;;;;;;;17.52;76.01;95821.00;5114889;28;20024;-65
2021/07/02 02:46:35;;;;;;;21.73;7.75;;;;;;;17.47;75.71;95824.00;5114881;28;20015;-65
2021/07/02 02:49:01;;;;;;;13.20;6.25;;;;;;;17.46;75.65;95827.59;5114755;28;20482;-62
2021/07/02 02:51:27;;;;;;;16.15;5.80;;;;;;;17.42;75.75;95834.94;5114553;28;20047;-65
2021/07/02 02:53:52;;;;;;;11.00;5.60;;;;;;;17.37;75.79;95833.59;5114657;28;20057;-64
2021/07/02 02:56:18;;;;;;;10.98;6.07;;;;;;;17.38;75.74;95844.06;5114703;28;20020;-67
2021/07/02 02:58:43;;;;;;;8.93;5.22;;;;;;;17.42;76.27;95844.66;5114380;28;20019;-61
2021/07/02 03:01:09;;;;;;;10.60;5.82;;;;;;;17.41;76.10;95842.97;5114499;28;20019;-63
2021/07/02 03:03:35;;;;;;;15.80;5.47;;;;;;;17.32;75.97;95844.53;5114397;28;20058;-63
2021/07/02 03:06:00;;;;;;;17.88;6.35;;;;;;;17.32;75.92;95855.09;5114419;28;20450;-63
2021/07/02 03:08:26;;;;;;;18.65;5.88;;;;;;;17.32;76.88;95856.88;5114073;28;20122;-62
2021/07/02 03:10:51;;;;;;;20.27;7.88;;;;;;;17.38;76.51;95853.78;5114470;28;20031;-65
2021/07/02 03:13:17;;;;;;;9.80;5.65;;;;;;;17.33;76.71;95848.03;5114301;28;20016;-63
2021/07/02 03:15:42;;;;;;;16.75;5.55;;;;;;;17.35;76.19;95851.38;5096060;28;20385;-63
2021/07/02 03:18:08;;;;;;;11.63;5.18;;;;;;;17.45;76.56;95852.34;5114216;28;20023;-67
2021/07/02 03:20:34;;;;;;;13.00;6.07;;;;;;;17.36;76.40;95845.13;5114265;28;20027;-67
2021/07/02 03:22:59;;;;;;;9.65;5.18;;;;;;;17.30;76.92;95846.44;5114122;28;20469;-63
2021/07/02 03:25:25;;;;;;;9.07;5.20;;;;;;;17.35;76.82;95854.00;5113985;28;20057;-66
2021/07/02 03:27:51;;;;;;;10.13;5.57;;;;;;;17.39;77.14;95850.16;5113968;28;20095;-63
2021/07/02 03:30:17;;;;;;;16.00;6.18;;;;;;;17.55;76.27;95849.84;5113843;28;20035;-65
2021/07/02 03:32:43;;;;;;;9.00;4.70;;;;;;;17.79;76.30;95856.84;5113861;28;20028;-63
2021/07/02 03:35:10;;;;;;;16.38;4.20;;;;;;;18.11;75.64;95847.31;5113898;28;20488;-64
2021/07/02 03:37:36;;;;;;;11.32;4.70;;;;;;;18.46;74.39;95856.91;5113802;28;20430;-60
2021/07/02 03:40:06;;;;;;;9.85;4.70;;;;;;;18.71;73.81;95864.63;5113710;28;20114;-62
2021/07/02 03:42:32;;;;;;;;;;;;;;;18.99;72.95;95867.69;5114361;28;20374;-63
2021/07/02 03:44:57;;;;;;;7.35;4.05;;;;;;;19.25;71.86;95872.63;5095589;28;19912;-66
2021/07/02 03:47:23;;;;;;;8.00;4.40;;;;;;;19.35;70.77;95872.72;5113758;28;20107;-65
2021/07/02 03:49:49;;;;;;;5.38;3.88;;;;;;;19.57;71.25;95869.91;5113323;28;20035;-65
2021/07/02 03:52:15;;;;;;;11.73;4.38;;;;;;;19.68;70.57;95874.28;5113643;28;20046;-66
2021/07/02 03:54:41;;;;;;;10.43;3.67;;;;;;;19.99;70.72;95877.94;5113608;28;20469;-63
2021/07/02 03:57:12;;;;;;;6.68;4.43;;;;;;;20.24;70.08;95874.00;5113530;28;20019;-66
2021/07/02 03:59:43;;;;;;;7.10;3.80;;;;;;;20.62;69.11;95878.69;5093210;28;20020;-66
2021/07/02 04:02:10;;;;;;;9.23;4.03;;;;;;;20.94;68.12;95886.44;5093123;28;20034;-67
2021/07/02 04:04:37;;;;;;;8.20;3.85;;;;;;;21.39;67.75;95889.50;5093031;28;20431;-67
2021/07/02 04:07:06;;;;;;;6.35;3.47;;;;;;;21.76;64.17;95882.59;5093178;28;20472;-66
2021/07/02 04:09:34;;;;;;;9.23;3.70;;;;;;;21.71;64.11;95890.16;5092836;28;20070;-63
2021/07/02 04:12:00;;;;;;;10.95;4.15;;;;;;;21.91;63.88;95890.13;5093096;28;20392;-67
2021/07/02 04:14:26;;;;;;;7.40;3.95;;;;;;;22.22;63.45;95888.00;5093089;28;20020;-63
2021/07/02 04:16:52;;;;;;;7.88;3.38;;;;;;;22.62;63.79;95895.00;5092960;28;20024;-68
2021/07/02 04:19:18;;;;;;;7.50;3.90;;;;;;;22.97;62.45;95893.38;5092971;28;20016;-64
2021/07/02 04:21:45;;;;;;;11.10;4.07;;;;;;;23.43;62.76;95900.44;5074969;28;20024;-68
2021/07/02 04:24:10;;;;;;;10.77;3.72;;;;;;;23.91;62.08;95895.59;5093020;28;20073;-65
2021/07/02 04:26:36;;;;;;;13.20;4.03;;;;;;;24.42;60.83;95900.22;5093108;28;20032;-67
2021/07/02 04:29:02;;;;;;;9.27;4.07;;;;;;;24.86;58.95;95899.16;5092973;28;20031;-64
2021/07/02 04:31:28;;;;;;;11.30;4.20;;;;;;;25.31;58.39;95903.44;5092953;28;20020;-63
2021/07/02 04:33:53;;;;;;;7.97;3.63;;;;;;;25.79;57.80;95910.81;5092989;28;20024;-64
2021/07/02 04:36:19;;;;;;;10.90;3.35;;;;;;;26.20;57.99;95899.13;5092993;28;20046;-64
2021/07/02 04:38:44;;;;;;;6.43;3.10;;;;;;;26.62;56.87;95911.41;5092776;28;20021;-63
2021/07/02 04:41:10;;;;;;;13.68;3.72;;;;;;;26.92;55.05;95912.56;5074759;28;20105;-65
2021/07/02 04:43:36;;;;;;;11.73;3.45;;;;;;;27.18;54.02;95912.25;5092883;28;20428;-65
2021/07/02 04:46:02;;;;;;;8.63;3.55;;;;;;;27.36;54.59;95916.50;5074801;28;20036;-66
2021/07/02 04:48:27;;;;;;;8.57;3.60;;;;;;;27.55;53.27;95912.50;5092744;28;20017;-66
2021/07/02 04:50:53;;;;;;;14.18;4.85;;;;;;;27.73;51.30;95922.09;5092749;28;20051;-64
2021/07/02 04:53:20;;;;;;;4.78;3.53;;;;;;;27.92;53.20;95920.75;5092707;28;20024;-69
2021/07/02 04:55:45;;;;;;;9.27;4.25;;;;;;;28.13;51.92;95922.72;5092676;28;20488;-65
2021/07/02 04:58:11;;;;;;;8.27;3.70;;;;;;;28.39;52.68;95926.00;5092608;28;20111;-67
2021/07/02 05:00:38;;;;;;;7.68;3.45;;;;;;;28.60;52.29;95933.28;5094011;28;20377;-64
2021/07/02 05:03:04;;;;;;;7.93;3.60;;;;;;;28.86;51.73;95937.31;5096484;28;20024;-66
2021/07/02 05:05:30;;;;;;;7.97;3.13;;;;;;;28.99;50.78;95944.72;5096359;28;20020;-63
2021/07/02 05:07:56;;;;;;;9.25;3.83;;;;;;;29.09;46.76;95944.44;5096275;28;20073;-70
2021/07/02 05:10:22;;;;;;;7.05;3.65;;;;;;;29.13;49.42;95948.41;5095867;28;20040;-71
2021/07/02 05:12:48;;;;;;;11.88;4.13;;;;;;;29.17;45.95;95950.72;5096301;28;20016;-68
2021/07/02 05:15:13;;;;;;;8.98;3.72;;;;;;;29.34;46.11;95945.91;5096142;28;20026;-63
2021/07/02 05:17:40;;;;;;;9.52;4.30;;;;;;;29.51;48.92;95943.81;5096049;28;20039;-69
2021/07/02 05:20:06;;;;;;;9.73;3.65;;;;;;;29.49;49.27;95954.78;5096046;28;20035;-67
2021/07/02 05:22:31;;;;;;;8.02;3.40;;;;;;;29.12;46.34;95965.59;5096012;28;20542;-65
2021/07/02 05:24:57;;;;;;;7.32;3.17;;;;;;;29.18;45.67;95955.94;5095884;28;20024;-68
2021/07/02 05:27:23;;;;;;;10.10;3.60;;;;;;;28.81;45.28;95960.44;5095916;28;20115;-68
2021/07/02 05:29:48;;;;;;;10.20;2.95;;;;;;;28.83;48.60;95964.59;5096034;28;20024;-70
2021/07/02 05:32:14;;;;;;;4.40;2.72;;;;;;;28.97;47.37;95964.78;5095859;28;20134;-68
2021/07/02 05:34:39;;;;;;;7.93;3.30;;;;;;;28.91;46.11;95962.81;5077707;28;20020;-64
2021/07/02 05:37:05;;;;;;;7.43;3.13;;;;;;;29.16;47.21;95962.53;5095770;28;20032;-65
2021/07/02 05:39:34;;;;;;;9.52;3.65;;;;;;;29.21;47.13;95957.38;5095665;28;20028;-66
2021/07/02 05:42:00;;;;;;;10.18;3.45;;;;;;;29.49;47.07;95962.84;5095643;28;20442;-65
2021/07/02 05:44:26;;;;;;;6.78;3.17;;;;;;;29.64;44.33;95967.38;5095524;28;20051;-61
2021/07/02 05:46:52;;;;;;;6.55;3.10;;;;;;;30.06;46.63;95975.59;5095545;28;20506;-66
2021/07/02 05:49:18;;;;;;;7.05;3.53;;;;;;;30.15;42.95;95976.28;5095592;28;20020;-66
2021/07/02 05:51:44;;;;;;;8.48;3.60;;;;;;;30.16;42.74;95969.03;5095581;28;20444;-68
2021/07/02 05:54:09;;;;;;;6.97;3.63;;;;;;;30.15;43.94;95973.56;5095736;28;20126;-66
2021/07/02 05:56:35;;;;;;;8.05;3.30;;;;;;;30.35;42.31;95972.91;5095373;28;20043;-64
2021/07/02 05:59:01;;;;;;;7.53;3.40;;;;;;;30.54;46.33;95976.75;5095300;28;20488;-69
2021/07/02 06:01:29;;;;;;;9.13;4.00;;;;;;;30.79;46.26;95968.19;5095306;28;20020;-65
2021/07/02 06:03:55;;;;;;;9.25;3.85;;;;;;;31.07;43.41;95979.94;5095290;28;20378;-67
2021/07/02 06:06:21;;;;;;;8.95;3.65;;;;;;;31.25;44.93;95985.59;5095175;28;20032;-67
2021/07/02 06:08:47;;;;;;;7.32;3.40;;;;;;;31.51;44.16;95983.16;5094958;28;20040;-62
2021/07/02 06:11:13;;;;;;;8.70;3.30;;;;;;;31.77;44.34;95978.84;5094918;28;20420;-64
2021/07/02 06:13:39;;;;;;;11.90;3.75;;;;;;;31.95;45.99;95980.97;5095226;28;20099;-66
2021/07/02 06:16:05;;;;;;;9.88;3.47;;;;;;;32.27;41.18;95985.72;5095119;28;20111;-70
2021/07/02 06:18:31;;;;;;;8.73;3.40;;;;;;;32.53;41.73;95984.03;5094898;28;20115;-64
2021/07/02 06:20:57;;;;;;;10.32;3.35;;;;;;;32.70;40.73;95989.81;5076771;28;20057;-68
2021/07/02 06:23:24;;;;;;;8.15;3.08;;;;;;;32.86;41.58;95993.94;5094778;28;20016;-65
2021/07/02 06:25:50;;;;;;;7.60;3.58;;;;;;;32.95;39.49;95993.72;5094773;28;20047;-65
2021/07/02 06:28:16;;;;;;;8.70;3.60;;;;;;;32.91;41.02;95982.47;5094637;28;20101;-65
2021/07/02 06:30:43;;;;;;;5.45;3.30;;;;;;;33.02;41.85;95989.91;5094804;28;20035;-64
2021/07/02 06:33:11;;;;;;;7.88;3.38;;;;;;;33.15;42.47;95983.66;5094810;28;20019;-66
2021/07/02 06:35:37;;;;;;;7.72;3.10;;;;;;;33.32;40.71;95982.31;5094610;28;20024;-66
2021/07/02 06:38:03;;;;;;;5.63;3.15;;;;;;;33.19;38.56;95972.38;5094394;28;20024;-66
2021/07/02 06:40:29;;;;;;;7.30;3.10;;;;;;;33.27;40.73;95972.13;5094409;28;20103;-70
2021/07/02 06:42:55;;;;;;;13.85;3.65;;;;;;;33.28;39.79;95971.06;5094443;28;20044;-63
2021/07/02 06:45:21;;;;;;;8.45;3.45;;;;;;;33.35;39.16;95966.44;5094293;28;20082;-67
2021/07/02 06:47:58;;;;;;;8.93;3.72;;;;;;;33.26;40.47;95965.03;5094389;28;20123;-64
2021/07/02 06:50:29;;;;;;;8.18;3.10;;;;;;;33.31;38.18;95967.09;5094376;28;20044;-69
2021/07/02 06:52:59;;;;;;;12.43;3.58;;;;;;;33.31;38.53;95970.63;5094333;28;20024;-67
2021/07/02 06:55:26;;;;;;;6.30;3.15;;;;;;;33.33;37.99;95965.00;5094267;28;20047;-68
2021/07/02 06:57:52;;;;;;;7.80;3.70;;;;;;;33.34;38.18;95966.66;5093987;28;20024;-65
2021/07/02 07:00:19;;;;;;;6.20;3.40;;;;;;;33.54;39.23;95955.69;5076192;28;20020;-62
2021/07/02 07:02:46;;;;;;;4.63;3.05;;;;;;;33.81;38.41;95954.69;5094098;28;20085;-66
2021/07/02 07:05:12;;;;;;;7.60;3.42;;;;;;;33.88;37.84;95950.03;5094068;28;20486;-66
2021/07/02 07:07:37;;;;;;;12.98;3.83;;;;;;;33.93;38.31;95952.91;5094006;28;20065;-63
2021/07/02 07:10:04;;;;;;;12.68;3.63;;;;;;;33.87;38.46;95951.09;5093654;28;20507;-64
2021/07/02 07:12:29;;;;;;;6.63;3.08;;;;;;;33.67;38.21;95954.78;5093956;28;20039;-65
2021/07/02 07:14:55;;;;;;;9.48;3.50;;;;;;;33.36;38.58;95948.31;5093939;28;20465;-64
2021/07/02 07:17:21;;;;;;;17.58;4.28;;;;;;;33.44;38.56;95950.78;5093848;28;20378;-69
2021/07/02 07:19:47;;;;;;;10.07;3.40;;;;;;;33.75;38.31;95946.41;5093937;28;20093;-67
2021/07/02 07:22:13;;;;;;;10.13;4.03;;;;;;;33.67;38.17;95946.66;5093552;28;20024;-64
2021/07/02 07:24:39;;;;;;;10.40;3.20;;;;;;;33.68;37.83;95950.22;5093219;28;20500;-63
2021/07/02 07:27:05;;;;;;;5.47;2.63;;;;;;;33.78;37.25;95947.84;5093646;28;20042;-63
2021/07/02 07:29:31;;;;;;;7.93;3.50;;;;;;;33.96;36.98;95952.47;5093596;28;20012;-61
2021/07/02 07:31:57;;;;;;;6.85;3.30;;;;;;;34.17;37.93;95950.44;5093594;28;20073;-64
2021/07/02 07:37:11;;;;;;;8.60;3.72;;;;;;;34.28;36.07;95959.72;5093843;28;20394;-67
2021/07/02 07:39:37;;;;;;;8.02;3.50;;;;;;;34.39;37.03;95961.69;5093408;28;20031;-63
2021/07/02 07:42:04;;;;;;;5.40;3.13;;;;;;;34.52;38.50;95968.03;5093367;28;20024;-63
2021/07/02 07:44:30;;;;;;;9.57;3.33;;;;;;;34.35;36.03;95965.06;5093382;28;20099;-63
2021/07/02 07:46:56;;;;;;;5.78;3.30;;;;;;;34.46;36.35;95963.50;5093312;28;20047;-64
2021/07/02 07:49:25;;;;;;;4.82;3.30;;;;;;;34.49;35.79;95971.22;5093296;28;20470;-66
2021/07/02 07:54:16;;;;;;;5.50;3.13;;;;;;;34.60;35.98;95975.03;5093392;28;20028;-64
2021/07/02 07:56:50;;;;;;;6.30;3.40;;;;;;;34.52;35.59;95979.72;5093231;28;20465;-63
2021/07/02 07:59:25;;;;;;;6.57;3.20;;;;;;;34.33;33.46;95981.59;5093158;28;20032;-62
2021/07/02 08:01:51;;;;;;;10.10;3.25;;;;;;;34.19;32.53;95982.78;5093286;28;20085;-62
2021/07/02 08:04:17;;;;;;;6.28;3.03;;;;;;;34.29;33.61;95980.38;5093150;28;20020;-68
2021/07/02 08:06:43;;;;;;;8.32;2.63;;;;;;;34.38;34.81;95972.78;5093103;28;20082;-65
2021/07/02 08:09:10;;;;;;;8.32;3.20;;;;;;;34.54;34.81;95976.78;5092912;28;20117;-66
2021/07/02 08:11:36;;;;;;;8.73;4.00;;;;;;;34.63;36.12;95978.13;5093066;28;20408;-69
2021/07/02 08:14:02;;;;;;;6.45;2.88;;;;;;;34.66;33.45;95974.16;5093046;28;20035;-68
2021/07/02 08:16:28;;;;;;;5.60;2.72;;;;;;;34.57;36.17;95978.19;5093039;28;20035;-62
2021/07/02 08:18:53;;;;;;;8.52;2.90;;;;;;;34.35;34.90;95981.34;5093092;28;20111;-66
2021/07/02 08:21:20;;;;;;;8.05;2.88;;;;;;;34.08;32.37;95971.56;5093004;28;20032;-65
2021/07/02 08:23:45;;;;;;;7.18;2.88;;;;;;;33.88;35.75;95972.56;5092994;28;20466;-63
2021/07/02 08:26:14;;;;;;;5.72;3.20;;;;;;;33.05;34.67;95971.59;5092960;28;20048;-65
2021/07/02 08:31:24;;;;;;;5.25;2.95;;;;;;;32.17;37.83;95972.63;5093440;28;20488;-66
2021/07/02 08:33:50;;;;;;;9.68;2.88;;;;;;;32.08;40.96;95977.41;5093044;28;20020;-67
2021/07/02 08:36:15;;;;;;;6.18;3.42;;;;;;;31.83;37.49;95977.19;5096942;28;20024;-66
2021/07/02 08:38:41;;;;;;;8.27;2.90;;;;;;;31.43;38.94;95973.41;5096862;28;20020;-63
2021/07/02 08:41:11;;;;;;;4.78;2.35;;;;;;;31.51;38.93;95973.22;5097014;28;20453;-64
2021/07/02 08:43:39;;;;;;;6.15;3.42;;;;;;;31.76;40.53;95980.72;5096871;28;20024;-63
2021/07/02 08:46:04;;;;;;;7.70;3.20;;;;;;;31.86;39.86;95979.47;5096720;28;20030;-66
2021/07/02 08:48:31;;;;;;;8.20;2.85;;;;;;;32.01;39.43;95980.13;5096610;28;20027;-65
2021/07/02 08:50:57;;;;;;;4.00;2.88;;;;;;;31.81;37.48;95974.69;5096604;28;20035;-63
2021/07/02 08:53:23;;;;;;;5.80;2.92;;;;;;;31.51;39.24;95977.75;5096601;28;20016;-67
2021/07/02 08:55:50;;;;;;;5.05;2.88;;;;;;;30.72;39.87;95988.88;5096627;28;20021;-62
2021/07/02 08:58:16;;;;;;;3.67;2.60;;;;;;;30.33;41.65;95983.06;5096446;28;20484;-61
2021/07/02 09:00:43;;;;;;;6.47;2.70;;;;;;;30.24;42.66;95988.59;5096393;28;20028;-65
2021/07/02 09:03:26;;;;;;;5.05;3.03;;;;;;;30.67;42.97;95988.66;5096342;28;20545;-61
2021/07/02 09:05:53;;;;;;;6.70;2.92;;;;;;;31.09;41.35;95983.25;5096349;28;20024;-64
2021/07/02 09:08:19;;;;;;;8.40;3.13;;;;;;;31.33;39.20;95978.34;5096180;28;20039;-63
2021/07/02 09:10:46;;;;;;;5.93;2.80;;;;;;;31.54;40.80;95971.94;5096234;28;20028;-62
2021/07/02 09:13:12;;;;;;;6.18;2.88;;;;;;;31.85;41.93;95975.97;5096214;28;20021;-63
2021/07/02 09:15:42;;;;;;;4.55;2.70;;;;;;;32.03;42.16;95977.22;5096120;28;20021;-63
2021/07/02 09:18:08;;;;;;;5.20;2.80;;;;;;;32.18;38.18;95977.00;5096047;28;20031;-65
2021/07/02 09:20:36;;;;;;;6.25;2.88;;;;;;;31.60;37.57;95975.72;5096074;28;20024;-64
2021/07/02 09:23:13;;;;;;;9.05;3.47;;;;;;;31.47;41.83;95954.91;5096090;28;20031;-67
2021/07/02 09:25:47;;;;;;;3.90;2.58;;;;;;;31.71;41.49;95958.88;5095892;28;20024;-67
2021/07/02 09:28:15;;;;;;;3.78;3.13;;;;;;;32.17;41.13;95961.81;5095939;28;20115;-65
2021/07/02 09:30:52;;;;;;;5.70;3.25;;;;;;;32.51;36.86;95964.50;5095764;28;20422;-63
2021/07/02 09:33:20;;;;;;;6.75;2.95;;;;;;;32.18;37.26;95965.34;5095926;28;20031;-68
2021/07/02 09:35:52;;;;;;;4.68;2.83;;;;;;;32.07;36.41;95959.53;5095788;28;20043;-64
2021/07/02 09:38:48;;;;;;;6.22;3.20;;;;;;;31.97;37.74;95951.88;5095577;28;20032;-62
2021/07/02 09:41:14;;;;;;;7.05;3.08;;;;;;;32.25;40.28;95958.91;5093726;28;20542;-65
2021/07/02 09:43:39;;;;;;;7.80;2.92;;;;;;;32.26;39.08;95951.59;5095644;28;20099;-69
2021/07/02 09:46:07;;;;;;;3.80;2.60;;;;;;;32.20;38.13;95952.47;5095037;28;20024;-66
2021/07/02 09:48:44;;;;;;;5.55;2.90;;;;;;;31.90;39.98;95942.88;5095623;28;20043;-66
2021/07/02 09:51:10;;;;;;;10.30;3.53;;;;;;;31.45;39.22;95936.22;5095565;28;20102;-66
2021/07/02 09:53:37;;;;;;;9.77;3.70;;;;;;;31.52;40.84;95931.63;5095663;28;20461;-67
2021/07/02 09:56:09;;;;;;;7.50;3.22;;;;;;;31.36;39.16;95929.34;5095537;28;20024;-65
2021/07/02 09:58:39;;;;;;;6.60;3.38;;;;;;;31.06;40.82;95932.38;5095597;28;20036;-63
2021/07/02 10:01:07;;;;;;;7.00;3.58;;;;;;;30.31;43.54;95936.59;5095424;28;20027;-66
2021/07/02 10:03:36;;;;;;;5.10;3.25;;;;;;;29.88;43.13;95936.50;5095287;28;20475;-66
2021/07/02 10:06:04;;;;;;;6.95;3.45;;;;;;;29.39;42.35;95936.25;5095230;28;20027;-62
2021/07/02 10:08:31;;;;;;;9.20;4.10;;;;;;;29.18;44.18;95933.53;5095014;28;20097;-67
2021/07/02 10:10:58;;;;;;;13.93;4.03;;;;;;;28.96;45.48;95925.47;5095232;28;20073;-63
2021/07/02 10:13:26;;;;;;;7.07;3.58;;;;;;;28.54;45.34;95939.41;5095120;28;20020;-64
2021/07/02 10:15:53;;;;;;;15.80;4.50;;;;;;;28.37;45.74;95936.09;5095027;28;20020;-66
2021/07/02 10:18:20;;;;;;;5.93;3.50;;;;;;;28.22;45.61;95933.34;5094877;28;20385;-61
2021/07/02 10:20:47;;;;;;;6.40;3.85;;;;;;;28.09;46.24;95942.91;5094993;28;20039;-63
2021/07/02 10:23:23;;;;;;;7.32;3.05;;;;;;;27.62;48.21;95936.75;5094886;28;20032;-62
2021/07/02 10:25:52;;;;;;;6.43;3.60;;;;;;;27.52;49.02;95937.03;5094920;28;20389;-64
2021/07/02 10:28:18;;;;;;;10.13;3.50;;;;;;;27.35;50.21;95936.28;5094746;28;20412;-68
2021/07/02 10:30:45;;;;;;;5.97;3.10;;;;;;;27.13;48.98;95936.13;5076611;28;20381;-66
2021/07/02 10:33:12;;;;;;;6.10;3.42;;;;;;;26.97;49.75;95937.03;5094719;28;20024;-64
2021/07/02 10:35:43;;;;;;;4.13;2.75;;;;;;;26.86;50.74;95946.31;5094665;28;20024;-65
2021/07/02 10:38:09;;;;;;;7.70;3.00;;;;;;;26.93;51.16;95947.28;5094707;28;20027;-65
2021/07/02 10:40:43;;;;;;;4.47;3.00;;;;;;;26.95;51.10;95953.31;5094681;28;20028;-66
2021/07/02 10:43:18;;;;;;;6.40;2.75;;;;;;;26.92;51.46;95948.28;5094533;28;20027;-66
2021/07/02 10:46:09;;;;;;;10.88;3.60;;;;;;;26.90;53.03;95944.94;5094499;28;20020;-64
2021/07/02 10:49:05;;;;;;;7.28;2.67;;;;;;;26.92;52.65;95948.28;5094337;28;20043;-62
2021/07/02 10:51:31;;;;;;;5.22;3.00;;;;;;;27.07;50.93;95939.50;5094460;28;20481;-66
2021/07/02 10:54:11;;;;;;;7.38;2.40;;;;;;;27.06;50.20;95937.84;5094295;28;20031;-63
2021/07/02 10:56:43;;;;;;;;;;;;;;;27.10;51.86;95942.69;5094810;28;20020;-63
2021/07/02 10:59:12;;;;;;;7.82;3.42;;;;;;;27.09;52.96;95934.81;5093259;28;19964;-67
2021/07/02 11:01:57;;;;;;;5.50;2.20;;;;;;;27.44;49.49;95937.06;5094192;28;20040;-65
2021/07/02 11:04:32;;;;;;;8.10;2.80;;;;;;;28.03;51.19;95934.75;5075944;28;20350;-64
2021/07/02 11:06:57;;;;;;;5.45;2.70;;;;;;;28.27;49.70;95928.28;5094057;28;20454;-66
2021/07/02 11:09:52;;;;;;;2.25;2.05;;;;;;;28.45;47.33;95916.34;5093785;28;20047;-64
2021/07/02 11:12:23;;;;;;;2.75;2.30;;;;;;;28.62;44.52;95925.03;5093957;28;20035;-62
2021/07/02 11:14:54;;;;;;;;;;;;;;;28.56;45.75;95923.09;5094349;28;20020;-65
2021/07/02 11:17:36;;;;;;;7.10;2.28;;;;;;;28.47;43.42;95895.47;5093730;28;19965;-65
2021/07/02 11:20:05;;;;;;;3.15;1.80;;;;;;;28.34;44.74;95905.03;5093883;28;20028;-66
2021/07/02 11:23:01;;;;;;;5.75;1.88;;;;;;;28.28;44.40;95897.69;5093815;28;20058;-61
2021/07/02 11:25:48;;;;;;;2.55;1.88;;;;;;;28.41;43.77;95896.22;5056417;28;20041;-64
2021/07/02 11:28:19;;;;;;;2.78;1.60;;;;;;;28.36;44.63;95892.22;5093872;28;20028;-64
2021/07/02 11:30:47;;;;;;;8.13;1.88;;;;;;;28.34;43.64;95893.44;5093633;28;20545;-64
2021/07/02 11:33:13;;;;;;;3.88;2.03;;;;;;;28.36;44.01;95891.41;5093679;28;20082;-64
2021/07/02 11:35:40;;;;;;;2.90;1.80;;;;;;;28.07;42.47;95893.03;5093584;28;20378;-65
2021/07/02 11:38:20;;;;;;;2.67;2.10;;;;;;;28.05;43.04;95898.59;5093380;28;20036;-63
2021/07/02 11:40:52;;;;;;;;;;;;;;;27.94;42.98;95899.91;5093966;28;20035;-68